Time;durP1;ratioP1;P1;durP2;ratioP2;P2;SDS_P1;SDS_P2;PMS_P1;PMS_P2;Temp;Humidity;BMP_temperature;BMP_pressure;BME280_temperature;BME280_humidity;BME280_pressure;Samples;Min_cycle;Max_cycle;Signal;HPM_P1;HPM_P2
2022/10/20 00:01:18;;;;;;;;;;;;;;;13.34;100.00;99316.16;5060655;28;19939;-45
2022/10/20 00:03:44;;;;;;;;;;;;;;;13.51;100.00;99305.16;5059453;28;20408;-45
2022/10/20 00:06:13;;;;;;;;;;;;;;;13.53;100.00;99298.19;5060062;28;19950;-46
2022/10/20 00:08:39;;;;;;;;;;;;;;;13.40;100.00;99303.00;5057596;28;20447;-45
2022/10/20 00:11:04;;;;;;;;;;;;;;;13.37;100.00;99293.59;5057487;28;19925;-45
2022/10/20 00:13:29;;;;;;;;;;;;;;;13.34;100.00;99309.25;5059575;28;20007;-46
2022/10/20 00:15:55;;;;;;;;;;;;;;;13.39;100.00;99299.56;5058814;28;20019;-45
2022/10/20 00:18:21;;;;;;;;;;;;;;;13.41;100.00;99293.47;5059184;28;19928;-45
2022/10/20 00:20:46;;;;;;;;;;;;;;;13.38;100.00;99292.69;5059714;28;19916;-45
2022/10/20 00:23:11;;;;;;;;;;;;;;;13.27;100.00;99292.22;5060119;28;19920;-45
2022/10/20 00:25:37;;;;;;;;;;;;;;;12.90;100.00;99293.63;5055805;28;19920;-45
2022/10/20 00:28:02;;;;;;;;;;;;;;;12.99;100.00;99287.28;5058832;28;20617;-46
2022/10/20 00:30:27;;;;;;;;;;;;;;;12.74;100.00;99282.16;5058708;28;19916;-45
2022/10/20 00:32:52;;;;;;;;;;;;;;;12.39;100.00;99286.84;5059333;28;19924;-46
2022/10/20 00:35:17;;;;;;;;;;;;;;;11.81;100.00;99288.75;5058850;28;19921;-46
2022/10/20 00:37:43;;;;;;;;;;;;;;;12.86;100.00;99278.28;5059466;28;19920;-46
2022/10/20 00:40:08;;;;;;;;;;;;;;;12.96;100.00;99272.72;5059024;28;19916;-46
2022/10/20 00:42:33;;;;;;;;;;;;;;;13.30;100.00;99261.13;5058418;28;19917;-46
2022/10/20 00:44:59;;;;;;;;;;;;;;;13.04;100.00;99269.00;5059451;28;20361;-46
2022/10/20 00:47:38;;;;;;;;;;;;;;;12.93;100.00;99271.97;5058495;28;19920;-46
2022/10/20 00:50:06;;;;;;;;;;;;;;;13.26;100.00;99251.75;5056473;28;19917;-47
2022/10/20 00:52:31;;;;;;;;;;;;;;;12.77;100.00;99251.03;5059581;28;19917;-45
2022/10/20 00:54:57;;;;;;;;;;;;;;;13.39;100.00;99249.59;5058096;28;19931;-45
2022/10/20 00:57:23;;;;;;;;;;;;;;;12.12;100.00;99258.50;5057102;28;19920;-46
2022/10/20 00:59:48;;;;;;;;;;;;;;;12.72;100.00;99252.94;5057735;28;21042;-45
2022/10/20 01:02:13;;;;;;;;;;;;;;;12.42;100.00;99248.00;5059134;28;19982;-45
2022/10/20 01:04:38;;;;;;;;;;;;;;;13.28;100.00;99229.31;5059305;28;19930;-45
2022/10/20 01:07:04;;;;;;;;;;;;;;;13.47;100.00;99225.97;5058876;28;19912;-45
2022/10/20 01:09:29;;;;;;;;;;;;;;;12.39;100.00;99245.53;5058277;28;19936;-45
2022/10/20 01:12:13;;;;;;;;;;;;;;;13.33;100.00;99227.38;5043005;28;19920;-45
2022/10/20 01:14:53;;;;;;;;;;;;;;;13.12;100.00;99217.84;5058198;28;20016;-45
2022/10/20 01:17:39;;;;;;;;;;;;;;;13.15;100.00;99210.78;5059137;28;19912;-45
2022/10/20 01:20:07;;;;;;;;;;;;;;;13.06;100.00;99202.56;5056994;28;20303;-45
2022/10/20 01:22:40;;;;;;;;;;;;;;;13.31;100.00;99203.31;5058276;28;20176;-45
2022/10/20 01:25:06;;;;;;;;;;;;;;;13.35;100.00;99197.13;5038513;28;19926;-45
2022/10/20 01:27:41;;;;;;;;;;;;;;;13.39;100.00;99196.09;5057538;28;20669;-45
2022/10/20 01:30:07;;;;;;;;;;;;;;;13.19;100.00;99188.25;5056866;28;20025;-45
2022/10/20 01:32:39;;;;;;;;;;;;;;;12.23;100.00;99205.66;5039753;28;19927;-45
2022/10/20 01:35:09;;;;;;;;;;;;;;;12.41;100.00;99202.41;5056993;28;19978;-45
2022/10/20 01:37:35;;;;;;;;;;;;;;;12.51;100.00;99205.50;5039799;28;19923;-45
2022/10/20 01:40:19;;;;;;;;;;;;;;;11.90;100.00;99203.31;5055549;28;19931;-46
2022/10/20 01:42:44;;;;;;;;;;;;;;;12.25;100.00;99198.69;5057657;28;20005;-45
2022/10/20 01:45:10;;;;;;;;;;;;;;;12.03;100.00;99190.84;5059466;28;19920;-45
2022/10/20 01:47:35;;;;;;;;;;;;;;;12.05;100.00;99184.75;5056796;28;19924;-45
2022/10/20 01:50:00;;;;;;;;;;;;;;;11.51;100.00;99194.25;5055334;28;20160;-45
2022/10/20 01:52:26;;;;;;;;;;;;;;;11.43;100.00;99200.56;5057679;28;19913;-45
2022/10/20 01:54:51;;;;;;;;;;;;;;;12.38;100.00;99214.56;5056851;28;20031;-45
2022/10/20 01:57:22;;;;;;;;;;;;;;;12.03;100.00;99203.75;5058199;28;19959;-46
2022/10/20 02:00:02;;;;;;;;;;;;;;;11.07;100.00;99219.72;5057598;28;19943;-45
2022/10/20 02:02:37;;;;;;;;;;;;;;;11.67;100.00;99220.38;5060854;28;19921;-45
2022/10/20 02:05:18;;;;;;;;;;;;;;;12.89;100.00;99211.81;5059799;28;19920;-45
2022/10/20 02:07:43;;;;;;;;;;;;;;;12.34;100.00;99196.63;5061666;28;19923;-45
2022/10/20 02:10:11;;;;;;;;;;;;;;;11.89;100.00;99196.50;5060145;28;19921;-45
2022/10/20 02:12:36;;;;;;;;;;;;;;;12.88;100.00;99176.50;5059966;28;19920;-45
2022/10/20 02:15:02;;;;;;;;;;;;;;;12.65;100.00;99161.06;5059583;28;19927;-45
2022/10/20 02:17:28;;;;;;;;;;;;;;;12.50;100.00;99163.31;5061551;28;19927;-45
2022/10/20 02:19:53;;;;;;;;;;;;;;;12.39;100.00;99160.28;5059657;28;20967;-45
2022/10/20 02:22:18;;;;;;;;;;;;;;;12.80;100.00;99157.06;5062039;28;19920;-45
2022/10/20 02:24:44;;;;;;;;;;;;;;;12.83;100.00;99152.59;5061993;28;19952;-45
2022/10/20 02:27:10;;;;;;;;;;;;;;;12.90;100.00;99159.19;5060802;28;20404;-45
2022/10/20 02:29:37;;;;;;;;;;;;;;;13.09;100.00;99140.38;5057521;28;19920;-45
2022/10/20 02:32:03;;;;;;;;;;;;;;;12.80;100.00;99134.63;5060072;28;20419;-45
2022/10/20 02:34:28;;;;;;;;;;;;;;;11.50;100.00;99150.47;5058566;28;19954;-45
2022/10/20 02:36:57;;;;;;;;;;;;;;;11.29;100.00;99155.44;5061333;28;20034;-45
2022/10/20 02:39:22;;;;;;;;;;;;;;;11.82;100.00;99149.38;5059244;28;20385;-45
2022/10/20 02:41:48;;;;;;;;;;;;;;;11.39;100.00;99150.00;5058748;28;19979;-45
2022/10/20 02:44:13;;;;;;;;;;;;;;;10.97;100.00;99151.31;5060998;28;20333;-45
2022/10/20 02:46:38;;;;;;;;;;;;;;;11.14;100.00;99148.19;5058757;28;20031;-44
2022/10/20 02:49:03;;;;;;;;;;;;;;;11.51;100.00;99147.00;5055591;28;20007;-45
2022/10/20 02:51:28;;;;;;;;;;;;;;;11.27;100.00;99133.19;5059141;28;19960;-45
2022/10/20 02:53:54;;;;;;;;;;;;;;;11.53;100.00;99137.47;5059043;28;20433;-45
2022/10/20 02:56:19;;;;;;;;;;;;;;;11.77;100.00;99132.34;5061304;28;20326;-45
2022/10/20 02:58:44;;;;;;;;;;;;;;;11.94;100.00;99127.50;5058896;28;20289;-45
2022/10/20 03:01:10;;;;;;;;;;;;;;;12.35;100.00;99117.41;5060416;28;20030;-45
2022/10/20 03:03:35;;;;;;;;;;;;;;;12.80;100.00;99103.63;5058744;28;20831;-45
2022/10/20 03:06:07;;;;;;;;;;;;;;;13.06;100.00;99096.56;5060463;28;20327;-44
2022/10/20 03:08:32;;;;;;;;;;;;;;;12.83;100.00;99090.56;5058816;28;19924;-44
2022/10/20 03:10:58;;;;;;;;;;;;;;;13.02;100.00;99069.97;5061337;28;20034;-45
2022/10/20 03:13:23;;;;;;;;;;;;;;;12.55;100.00;99070.97;5056973;28;20003;-44
2022/10/20 03:15:48;;;;;;;;;;;;;;;12.18;100.00;99079.31;5059272;28;20026;-45
2022/10/20 03:18:13;;;;;;;;;;;;;;;13.08;100.00;99069.72;5058450;28;19920;-44
2022/10/20 03:20:39;;;;;;;;;;;;;;;13.19;100.00;99056.38;5058207;28;19924;-45
2022/10/20 03:23:04;;;;;;;;;;;;;;;13.42;100.00;99057.19;5058736;28;19927;-44
2022/10/20 03:25:30;;;;;;;;;;;;;;;13.23;100.00;99063.09;5058192;28;19949;-44
2022/10/20 03:27:55;;;;;;;;;;;;;;;13.25;100.00;99063.88;5059321;28;19920;-44
2022/10/20 03:30:20;;;;;;;;;;;;;;;13.26;100.00;99055.22;5059083;28;19925;-44
2022/10/20 03:32:45;;;;;;;;;;;;;;;13.33;100.00;99041.13;5059669;28;19920;-44
2022/10/20 03:35:11;;;;;;;;;;;;;;;12.91;100.00;99042.00;5058676;28;20406;-44
2022/10/20 03:37:36;;;;;;;;;;;;;;;13.05;100.00;99035.44;5059746;28;19982;-45
2022/10/20 03:40:01;;;;;;;;;;;;;;;12.51;100.00;99038.41;5058726;28;19927;-44
2022/10/20 03:42:27;;;;;;;;;;;;;;;12.36;100.00;99046.75;5058939;28;19921;-45
2022/10/20 03:44:52;;;;;;;;;;;;;;;12.19;100.00;99051.75;5059165;28;19921;-45
2022/10/20 03:47:17;;;;;;;;;;;;;;;13.03;100.00;99037.22;5060185;28;19924;-45
2022/10/20 03:49:42;;;;;;;;;;;;;;;12.75;100.00;99022.84;5054117;28;19977;-45
2022/10/20 03:52:08;;;;;;;;;;;;;;;13.28;100.00;99014.63;5058300;28;19936;-46
2022/10/20 03:54:34;;;;;;;;;;;;;;;13.27;100.00;99012.06;5059437;28;19929;-45
2022/10/20 03:56:59;;;;;;;;;;;;;;;13.10;100.00;99007.63;5058353;28;20550;-45
2022/10/20 03:59:24;;;;;;;;;;;;;;;12.87;100.00;99009.44;5058091;28;19917;-45
2022/10/20 04:01:49;;;;;;;;;;;;;;;12.38;100.00;99021.72;5059498;28;19920;-44
2022/10/20 04:04:15;;;;;;;;;;;;;;;12.64;100.00;99012.94;5057779;28;20796;-45
2022/10/20 04:06:40;;;;;;;;;;;;;;;12.29;100.00;99012.59;5059714;28;20393;-44
2022/10/20 04:09:05;;;;;;;;;;;;;;;12.58;100.00;99013.19;5057650;28;19920;-45
2022/10/20 04:11:31;;;;;;;;;;;;;;;12.75;100.00;99012.53;5058404;28;19994;-46
2022/10/20 04:13:56;;;;;;;;;;;;;;;12.67;100.00;99006.81;5055304;28;20358;-46
2022/10/20 04:16:21;;;;;;;;;;;;;;;12.75;100.00;99008.19;5060326;28;19917;-44
2022/10/20 04:18:46;;;;;;;;;;;;;;;12.46;100.00;99014.53;5059308;28;19961;-44
2022/10/20 04:21:11;;;;;;;;;;;;;;;11.82;100.00;99007.47;5059868;28;20021;-44
2022/10/20 04:23:37;;;;;;;;;;;;;;;11.95;100.00;98996.69;5056431;28;20004;-44
2022/10/20 04:26:09;;;;;;;;;;;;;;;12.29;100.00;98997.13;5057807;28;20011;-45
2022/10/20 04:28:34;;;;;;;;;;;;;;;12.49;100.00;98979.97;5058865;28;19924;-44
2022/10/20 04:30:59;;;;;;;;;;;;;;;12.43;100.00;98972.47;5058810;28;19920;-44
2022/10/20 04:33:24;;;;;;;;;;;;;;;12.65;100.00;98962.09;5058484;28;19917;-44
2022/10/20 04:35:55;;;;;;;;;;;;;;;12.30;100.00;98947.13;5059903;28;19924;-44
2022/10/20 04:38:20;;;;;;;;;;;;;;;12.18;100.00;98941.59;5058637;28;19924;-44
2022/10/20 04:40:52;;;;;;;;;;;;;;;12.92;100.00;98929.94;5057593;28;19927;-44
2022/10/20 04:43:17;;;;;;;;;;;;;;;12.68;100.00;98933.56;5058032;28;19920;-44
2022/10/20 04:45:43;;;;;;;;;;;;;;;12.90;100.00;98910.25;5057896;28;20304;-44
2022/10/20 04:48:08;;;;;;;;;;;;;;;12.61;100.00;98914.88;5058086;28;20389;-44
2022/10/20 04:50:33;;;;;;;;;;;;;;;12.43;100.00;98908.75;5058301;28;20059;-46
2022/10/20 04:52:58;;;;;;;;;;;;;;;12.63;100.00;98913.06;5058661;28;19973;-45
2022/10/20 04:55:24;;;;;;;;;;;;;;;12.82;100.00;98904.53;5059086;28;19924;-44
2022/10/20 04:57:49;;;;;;;;;;;;;;;13.19;100.00;98902.06;5058872;28;19970;-46
2022/10/20 05:00:14;;;;;;;;;;;;;;;13.38;100.00;98907.25;5058162;28;20337;-44
2022/10/20 05:02:39;;;;;;;;;;;;;;;13.48;100.00;98896.50;5059481;28;19917;-45
2022/10/20 05:05:05;;;;;;;;;;;;;;;13.64;100.00;98897.50;5059094;28;19927;-44
2022/10/20 05:07:30;;;;;;;;;;;;;;;12.43;100.00;98895.84;5059228;28;19927;-45
2022/10/20 05:09:55;;;;;;;;;;;;;;;11.73;100.00;98900.28;5057823;28;20007;-45
2022/10/20 05:12:20;;;;;;;;;;;;;;;12.89;100.00;98893.06;5058135;28;20717;-44
2022/10/20 05:14:46;;;;;;;;;;;;;;;12.37;100.00;98887.50;5058317;28;20397;-44
2022/10/20 05:17:11;;;;;;;;;;;;;;;12.33;100.00;98881.63;5058719;28;20332;-44
2022/10/20 05:19:36;;;;;;;;;;;;;;;12.49;100.00;98869.75;5058842;28;19935;-44
2022/10/20 05:22:01;;;;;;;;;;;;;;;12.42;100.00;98863.16;5058561;28;20095;-45
2022/10/20 05:24:27;;;;;;;;;;;;;;;12.71;100.00;98859.34;5059450;28;19987;-45
2022/10/20 05:26:52;;;;;;;;;;;;;;;13.00;100.00;98854.66;5056749;28;19912;-46
2022/10/20 05:29:17;;;;;;;;;;;;;;;12.85;100.00;98847.56;5058854;28;20002;-45
2022/10/20 05:31:42;;;;;;;;;;;;;;;13.04;100.00;98837.25;5058592;28;19916;-44
2022/10/20 05:34:08;;;;;;;;;;;;;;;12.90;100.00;98833.53;5058724;28;19920;-45
2022/10/20 05:36:33;;;;;;;;;;;;;;;13.25;100.00;98828.53;5060559;28;20000;-45
2022/10/20 05:38:59;;;;;;;;;;;;;;;13.27;100.00;98816.34;5060658;28;19920;-45
2022/10/20 05:41:25;;;;;;;;;;;;;;;13.52;100.00;98815.25;5061560;28;20351;-45
2022/10/20 05:43:52;;;;;;;;;;;;;;;13.44;100.00;98817.38;5061059;28;19927;-45
2022/10/20 05:46:17;;;;;;;;;;;;;;;13.28;100.00;98815.50;5061516;28;20033;-45
2022/10/20 05:48:42;;;;;;;;;;;;;;;13.98;100.00;98807.88;5062258;28;19946;-45
2022/10/20 05:51:15;;;;;;;;;;;;;;;13.91;100.00;98811.66;5061576;28;19920;-45
2022/10/20 05:53:40;;;;;;;;;;;;;;;13.74;100.00;98808.16;5061530;28;19995;-45
2022/10/20 05:56:06;;;;;;;;;;;;;;;13.37;100.00;98809.91;5061853;28;19920;-45
2022/10/20 05:58:32;;;;;;;;;;;;;;;13.38;100.00;98797.78;5060861;28;19993;-45
2022/10/20 06:01:18;;;;;;;;;;;;;;;13.32;100.00;98814.44;5053676;28;19924;-45
2022/10/20 06:04:01;;;;;;;;;;;;;;;14.18;100.00;98812.06;5060513;28;20395;-45
2022/10/20 06:06:27;;;;;;;;;;;;;;;13.99;100.00;98814.75;5060870;28;19916;-45
2022/10/20 06:08:53;;;;;;;;;;;;;;;14.10;100.00;98812.47;5060455;28;20499;-46
2022/10/20 06:11:19;;;;;;;;;;;;;;;13.84;100.00;98818.06;5061461;28;19923;-45
2022/10/20 06:13:44;;;;;;;;;;;;;;;13.80;100.00;98838.09;5062460;28;19928;-45
2022/10/20 06:16:10;;;;;;;;;;;;;;;13.81;100.00;98843.19;5062339;28;19932;-45
2022/10/20 06:18:37;;;;;;;;;;;;;;;13.89;100.00;98844.56;5061149;28;20011;-45
2022/10/20 06:21:06;;;;;;;;;;;;;;;14.60;100.00;98850.56;5061776;28;20304;-46
2022/10/20 06:23:31;;;;;;;;;;;;;;;14.29;100.00;98853.81;5055105;28;19967;-45
2022/10/20 06:26:00;;;;;;;;;;;;;;;14.21;100.00;98846.44;5055963;28;19924;-45
2022/10/20 06:28:25;;;;;;;;;;;;;;;14.49;100.00;98850.22;5059782;28;19958;-45
2022/10/20 06:30:50;;;;;;;;;;;;;;;14.10;100.00;98859.06;5060682;28;19924;-46
2022/10/20 06:33:16;;;;;;;;;;;;;;;14.04;100.00;98858.53;5060663;28;19923;-46
2022/10/20 06:35:41;;;;;;;;;;;;;;;14.36;100.00;98869.91;5061173;28;20284;-46
2022/10/20 06:38:06;;;;;;;;;;;;;;;14.22;100.00;98862.81;5060947;28;19970;-45
2022/10/20 06:40:32;;;;;;;;;;;;;;;14.08;100.00;98873.00;5059304;28;19916;-45
2022/10/20 06:42:57;;;;;;;;;;;;;;;14.62;100.00;98881.59;5061252;28;19920;-45
2022/10/20 06:45:22;;;;;;;;;;;;;;;14.14;100.00;98878.72;5061468;28;19916;-46
2022/10/20 06:47:48;;;;;;;;;;;;;;;14.33;100.00;98883.84;5060140;28;19924;-45
2022/10/20 06:50:13;;;;;;;;;;;;;;;14.20;100.00;98878.41;5061625;28;19917;-46
2022/10/20 06:52:38;;;;;;;;;;;;;;;14.45;100.00;98882.38;5061752;28;19913;-45
2022/10/20 06:55:04;;;;;;;;;;;;;;;14.47;100.00;98880.56;5062116;28;19920;-46
2022/10/20 06:57:32;;;;;;;;;;;;;;;14.78;100.00;98871.25;5061866;28;19923;-46
2022/10/20 06:59:57;;;;;;;;;;;;;;;14.74;100.00;98869.75;5061553;28;19921;-46
2022/10/20 07:02:22;;;;;;;;;;;;;;;14.44;100.00;98878.13;5061164;28;19928;-46
2022/10/20 07:04:50;;;;;;;;;;;;;;;14.49;100.00;98870.97;5062247;28;19913;-45
2022/10/20 07:07:15;;;;;;;;;;;;;;;14.37;100.00;98892.31;5061106;28;20377;-46
2022/10/20 07:09:41;;;;;;;;;;;;;;;14.74;100.00;98877.53;5061175;28;19925;-46
2022/10/20 07:12:06;;;;;;;;;;;;;;;14.92;100.00;98874.00;5061965;28;19924;-46
2022/10/20 07:14:31;;;;;;;;;;;;;;;14.87;100.00;98886.38;5061218;28;19924;-46
2022/10/20 07:16:56;;;;;;;;;;;;;;;14.90;100.00;98870.66;5061889;28;19916;-46
2022/10/20 07:19:22;;;;;;;;;;;;;;;14.94;100.00;98872.16;5061140;28;19913;-46
2022/10/20 07:21:47;;;;;;;;;;;;;;;14.89;100.00;98868.94;5060673;28;19917;-46
2022/10/20 07:24:12;;;;;;;;;;;;;;;15.11;100.00;98863.50;5061898;28;19962;-46
2022/10/20 07:26:39;;;;;;;;;;;;;;;14.95;100.00;98863.47;5060091;28;20416;-46
2022/10/20 07:29:04;;;;;;;;;;;;;;;14.95;100.00;98847.91;5061189;28;19966;-47
2022/10/20 07:31:29;;;;;;;;;;;;;;;14.77;100.00;98854.03;5059923;28;20039;-46
2022/10/20 07:33:57;;;;;;;;;;;;;;;15.02;100.00;98853.59;5061546;28;19969;-46
2022/10/20 07:36:26;;;;;;;;;;;;;;;15.25;100.00;98842.00;5059489;28;19920;-46
2022/10/20 07:38:52;;;;;;;;;;;;;;;15.34;100.00;98851.88;5060303;28;19927;-47
2022/10/20 07:41:17;;;;;;;;;;;;;;;15.06;100.00;98855.97;5060512;28;19916;-46
2022/10/20 07:43:42;;;;;;;;;;;;;;;15.79;100.00;98854.69;5061429;28;20381;-46
2022/10/20 07:46:08;;;;;;;;;;;;;;;15.67;100.00;98838.00;5059359;28;19916;-46
2022/10/20 07:48:33;;;;;;;;;;;;;;;15.22;100.00;98834.41;5059647;28;19916;-46
2022/10/20 07:51:13;;;;;;;;;;;;;;;15.92;100.00;98841.84;5060286;28;19923;-46
2022/10/20 07:53:39;;;;;;;;;;;;;;;15.99;100.00;98832.81;5060981;28;19920;-47
2022/10/20 07:56:04;;;;;;;;;;;;;;;15.71;100.00;98831.72;5060182;28;19916;-46
2022/10/20 07:58:29;;;;;;;;;;;;;;;15.44;100.00;98832.31;5059833;28;19912;-46
2022/10/20 08:00:54;;;;;;;;;;;;;;;15.65;100.00;98826.88;5060974;28;19917;-46
2022/10/20 08:03:19;;;;;;;;;;;;;;;15.96;100.00;98822.56;5060726;28;20008;-46
2022/10/20 08:05:45;;;;;;;;;;;;;;;15.46;100.00;98817.50;5060002;28;19952;-47
2022/10/20 08:08:10;;;;;;;;;;;;;;;15.98;100.00;98812.94;5060055;28;19928;-46
2022/10/20 08:10:35;;;;;;;;;;;;;;;16.26;100.00;98807.81;5060282;28;20423;-46
2022/10/20 08:13:00;;;;;;;;;;;;;;;15.80;100.00;98810.44;5061083;28;20643;-46
2022/10/20 08:15:26;;;;;;;;;;;;;;;16.19;100.00;98806.47;5060462;28;19967;-46
2022/10/20 08:17:51;;;;;;;;;;;;;;;16.38;100.00;98805.44;5060778;28;20381;-46
2022/10/20 08:20:16;;;;;;;;;;;;;;;16.13;100.00;98795.63;5059052;28;19916;-50
2022/10/20 08:22:41;;;;;;;;;;;;;;;16.58;100.00;98807.69;5060398;28;19917;-47
2022/10/20 08:25:08;;;;;;;;;;;;;;;16.37;100.00;98804.56;5059684;28;19913;-46
2022/10/20 08:27:33;;;;;;;;;;;;;;;17.11;100.00;98795.81;5059009;28;20277;-47
2022/10/20 08:29:58;;;;;;;;;;;;;;;17.53;100.00;98786.19;5058123;28;19916;-46
2022/10/20 08:32:24;;;;;;;;;;;;;;;17.34;100.00;98776.13;5059839;28;19916;-46
2022/10/20 08:34:49;;;;;;;;;;;;;;;17.65;100.00;98773.31;5059160;28;19920;-46
2022/10/20 08:37:14;;;;;;;;;;;;;;;17.18;100.00;98764.19;5057334;28;19968;-46
2022/10/20 08:39:39;;;;;;;;;;;;;;;17.55;100.00;98758.31;5057228;28;20377;-46
2022/10/20 08:42:04;;;;;;;;;;;;;;;17.30;100.00;98747.78;5059270;28;20227;-47
2022/10/20 08:44:30;;;;;;;;;;;;;;;17.69;100.00;98738.34;5059203;28;19999;-47
2022/10/20 08:46:56;;;;;;;;;;;;;;;18.35;100.00;98734.81;5056180;28;20027;-47
2022/10/20 08:49:23;;;;;;;;;;;;;;;18.35;100.00;98726.97;5057842;28;19919;-46
2022/10/20 08:51:48;;;;;;;;;;;;;;;18.21;100.00;98734.91;5058657;28;20563;-46
2022/10/20 08:54:14;;;;;;;;;;;;;;;18.08;100.00;98736.66;5058652;28;20009;-46
2022/10/20 08:56:39;;;;;;;;;;;;;;;19.20;100.00;98719.34;5059409;28;20261;-46
2022/10/20 08:59:15;;;;;;;;;;;;;;;18.87;100.00;98722.56;5058482;28;19925;-46
2022/10/20 09:01:40;;;;;;;;;;;;;;;18.21;100.00;98721.88;5058533;28;20046;-46
2022/10/20 09:04:19;;;;;;;;;;;;;;;18.53;100.00;98709.25;5058097;28;20411;-46
2022/10/20 09:06:45;;;;;;;;;;;;;;;18.37;100.00;98704.25;5058494;28;20035;-47
2022/10/20 09:09:15;;;;;;;;;;;;;;;18.61;100.00;98700.91;5058231;28;20364;-47
2022/10/20 09:11:40;;;;;;;;;;;;;;;19.98;100.00;98691.00;5058304;28;19928;-47
2022/10/20 09:14:07;;;;;;;;;;;;;;;20.21;100.00;98689.28;5060244;28;19920;-47
2022/10/20 09:16:36;;;;;;;;;;;;;;;20.21;100.00;98702.34;5057731;28;19921;-48
2022/10/20 09:19:02;;;;;;;;;;;;;;;20.32;100.00;98723.28;5057519;28;19959;-47
2022/10/20 09:21:27;;;;;;;;;;;;;;;20.74;100.00;98712.25;5057757;28;19944;-47
2022/10/20 09:23:59;;;;;;;;;;;;;;;20.03;100.00;98723.69;5057703;28;19917;-46
2022/10/20 09:26:34;;;;;;;;;;;;;;;19.58;100.00;98728.75;5057001;28;19916;-46
2022/10/20 09:29:12;;;;;;;;;;;;;;;19.56;100.00;98729.81;5057313;28;20847;-47
2022/10/20 09:31:38;;;;;;;;;;;;;;;19.79;100.00;98728.97;5058034;28;19924;-47
2022/10/20 09:34:22;;;;;;;;;;;;;;;19.79;100.00;98741.22;5057617;28;19916;-47
2022/10/20 09:36:47;;;;;;;;;;;;;;;20.11;100.00;98730.97;5058979;28;19925;-47
2022/10/20 09:39:17;;;;;;;;;;;;;;;19.80;100.00;98732.44;5056585;28;19917;-47
2022/10/20 09:41:43;;;;;;;;;;;;;;;19.85;100.00;98719.84;5058586;28;19923;-46
2022/10/20 09:44:11;;;;;;;;;;;;;;;19.53;100.00;98714.38;5058700;28;19913;-46
2022/10/20 09:46:37;;;;;;;;;;;;;;;20.41;100.00;98712.13;5056611;28;19959;-47
2022/10/20 09:49:02;;;;;;;;;;;;;;;20.27;100.00;98712.31;5057300;28;19952;-46
2022/10/20 09:51:27;;;;;;;;;;;;;;;20.60;100.00;98700.25;5057197;28;20393;-47
2022/10/20 09:54:03;;;;;;;;;;;;;;;20.39;100.00;98719.25;5057426;28;20894;-46
2022/10/20 09:56:29;;;;;;;;;;;;;;;19.75;100.00;98718.88;5057283;28;19959;-47
2022/10/20 09:58:55;;;;;;;;;;;;;;;19.82;100.00;98704.41;5058239;28;19925;-46
2022/10/20 10:01:21;;;;;;;;;;;;;;;19.97;100.00;98703.25;5059424;28;20621;-46
2022/10/20 10:03:47;;;;;;;;;;;;;;;19.58;100.00;98709.63;5057629;28;20439;-47
2022/10/20 10:06:27;;;;;;;;;;;;;;;19.93;100.00;98712.25;5057491;28;19920;-47
2022/10/20 10:08:52;;;;;;;;;;;;;;;19.52;100.00;98713.53;5057583;28;19916;-47
2022/10/20 10:11:18;;;;;;;;;;;;;;;19.15;100.00;98724.03;5057123;28;20423;-47
2022/10/20 10:13:44;;;;;;;;;;;;;;;20.08;100.00;98714.69;5058508;28;19924;-46
2022/10/20 10:16:12;;;;;;;;;;;;;;;20.05;100.00;98708.75;5057678;28;19924;-47
2022/10/20 10:18:38;;;;;;;;;;;;;;;20.72;100.00;98694.03;5058341;28;19943;-46
2022/10/20 10:21:07;;;;;;;;;;;;;;;20.38;100.00;98699.25;5058023;28;19934;-46
2022/10/20 10:23:35;;;;;;;;;;;;;;;20.74;100.00;98707.00;5060164;28;20823;-46
2022/10/20 10:26:00;;;;;;;;;;;;;;;20.30;100.00;98704.25;5061730;28;19974;-46
2022/10/20 10:28:32;;;;;;;;;;;;;;;20.61;100.00;98707.13;5061928;28;19916;-46
2022/10/20 10:31:06;;;;;;;;;;;;;;;21.33;100.00;98708.44;5060560;28;19931;-46
2022/10/20 10:33:32;;;;;;;;;;;;;;;21.28;100.00;98707.00;5061488;28;20393;-46
2022/10/20 10:35:57;;;;;;;;;;;;;;;20.84;100.00;98708.75;5060905;28;19924;-46
2022/10/20 10:38:22;;;;;;;;;;;;;;;20.68;100.00;98705.69;5061012;28;19912;-46
2022/10/20 10:40:56;;;;;;;;;;;;;;;20.85;100.00;98705.22;5061424;28;19921;-47
2022/10/20 10:43:44;;;;;;;;;;;;;;;20.06;100.00;98722.63;5062021;28;19961;-46
2022/10/20 10:46:11;;;;;;;;;;;;;;;19.85;100.00;98731.13;5057726;28;19916;-47
2022/10/20 10:48:44;;;;;;;;;;;;;;;19.79;100.00;98720.31;5059825;28;19916;-47
2022/10/20 10:51:10;;;;;;;;;;;;;;;19.28;100.00;98723.16;5061600;28;20015;-46
2022/10/20 10:53:46;;;;;;;;;;;;;;;18.98;100.00;98713.97;5060308;28;21108;-46
2022/10/20 10:56:20;;;;;;;;;;;;;;;18.83;100.00;98725.50;5061089;28;20487;-46
2022/10/20 10:58:46;;;;;;;;;;;;;;;19.20;100.00;98708.03;5061134;28;19928;-46
2022/10/20 11:01:15;;;;;;;;;;;;;;;18.55;100.00;98722.19;5043392;28;20342;-46
2022/10/20 11:03:46;;;;;;;;;;;;;;;18.44;100.00;98714.25;5061624;28;19935;-47
2022/10/20 11:06:20;;;;;;;;;;;;;;;18.80;100.00;98714.34;5060815;28;19920;-47
2022/10/20 11:09:08;;;;;;;;;;;;;;;18.83;100.00;98709.84;5059318;28;19916;-47
2022/10/20 11:11:43;;;;;;;;;;;;;;;18.97;100.00;98713.13;5049634;28;19927;-47
2022/10/20 11:14:27;;;;;;;;;;;;;;;19.79;100.00;98710.69;5059225;28;19969;-46
2022/10/20 11:17:04;;;;;;;;;;;;;;;19.28;100.00;98704.91;5060313;28;20411;-47
2022/10/20 11:19:32;;;;;;;;;;;;;;;19.31;100.00;98702.06;5060908;28;20350;-49
2022/10/20 11:22:00;;;;;;;;;;;;;;;19.31;100.00;98695.03;5060187;28;19920;-46
2022/10/20 11:24:25;;;;;;;;;;;;;;;18.49;100.00;98696.53;5060386;28;19913;-46
2022/10/20 11:26:53;;;;;;;;;;;;;;;18.80;100.00;98692.63;5057323;28;19916;-47
2022/10/20 11:29:39;;;;;;;;;;;;;;;18.32;100.00;98690.69;5060304;28;20370;-46
2022/10/20 11:32:11;;;;;;;;;;;;;;;18.19;100.00;98700.28;5061201;28;19916;-46
2022/10/20 11:34:39;;;;;;;;;;;;;;;18.71;100.00;98690.66;5059991;28;20780;-46
2022/10/20 11:37:21;;;;;;;;;;;;;;;18.18;100.00;98689.03;5059349;28;19967;-47
2022/10/20 11:39:53;;;;;;;;;;;;;;;17.92;100.00;98682.16;5057568;28;19920;-46
2022/10/20 11:42:21;;;;;;;;;;;;;;;17.83;100.00;98683.59;5059847;28;19951;-46
2022/10/20 11:44:46;;;;;;;;;;;;;;;17.84;100.00;98674.84;5059901;28;20388;-47
2022/10/20 11:47:12;;;;;;;;;;;;;;;17.80;100.00;98668.16;5057414;28;19917;-47
2022/10/20 11:49:38;;;;;;;;;;;;;;;17.49;100.00;98670.19;5058702;28;20278;-47
2022/10/20 11:52:10;;;;;;;;;;;;;;;17.62;100.00;98653.75;5058979;28;20331;-46
2022/10/20 11:54:55;;;;;;;;;;;;;;;17.60;100.00;98671.25;5060613;28;19920;-47
2022/10/20 11:57:58;;;;;;;;;;;;;;;17.81;100.00;98671.56;5059175;28;19920;-46
2022/10/20 12:00:36;;;;;;;;;;;;;;;17.63;100.00;98663.22;5036279;28;19917;-46
2022/10/20 12:03:07;;;;;;;;;;;;;;;17.52;100.00;98661.34;5037644;28;19917;-45
2022/10/20 12:05:44;;;;;;;;;;;;;;;17.55;100.00;98669.78;5041101;28;20373;-46
2022/10/20 12:08:12;;;;;;;;;;;;;;;17.53;100.00;98666.44;5058683;28;19960;-46
2022/10/20 12:10:56;;;;;;;;;;;;;;;17.54;100.00;98662.09;5059516;28;20019;-46
2022/10/20 12:13:24;;;;;;;;;;;;;;;17.37;100.00;98655.38;5060486;28;19966;-46
2022/10/20 12:15:50;;;;;;;;;;;;;;;17.58;100.00;98657.50;5059805;28;19935;-46
2022/10/20 12:18:26;;;;;;;;;;;;;;;17.32;100.00;98647.84;5059037;28;19979;-46
2022/10/20 12:20:53;;;;;;;;;;;;;;;17.42;100.00;98647.25;5060347;28;20370;-46
2022/10/20 12:23:37;;;;;;;;;;;;;;;17.13;100.00;98621.38;5058385;28;19920;-47
2022/10/20 12:26:02;;;;;;;;;;;;;;;17.29;100.00;98626.41;5057776;28;19923;-46
2022/10/20 12:28:27;;;;;;;;;;;;;;;17.33;100.00;98633.06;5058034;28;19916;-46
2022/10/20 12:30:56;;;;;;;;;;;;;;;17.33;100.00;98625.25;5059701;28;19916;-45
2022/10/20 12:33:40;;;;;;;;;;;;;;;17.60;100.00;98619.16;5059994;28;19927;-46
2022/10/20 12:36:17;;;;;;;;;;;;;;;17.41;100.00;98630.81;5058893;28;19920;-47
2022/10/20 12:38:43;;;;;;;;;;;;;;;17.72;100.00;98626.16;5058799;28;19916;-46